Time;durP1;ratioP1;P1;durP2;ratioP2;P2;SDS_P1;SDS_P2;PMS_P1;PMS_P2;Temp;Humidity;BMP_temperature;BMP_pressure;BME280_temperature;BME280_humidity;BME280_pressure;Samples;Min_cycle;Max_cycle;Signal;HPM_P1;HPM_P2
2021/09/24 00:00:55;;;;;;;;;;;23.10;47.20;;;;;;1534196;76;1917;-67
2021/09/24 00:02:57;;;;;;;;;;;23.10;47.20;;;;;;1545727;76;748;-68
2021/09/24 00:04:59;;;;;;;;;;;23.10;47.20;;;;;;1529024;76;1151;-67
2021/09/24 00:07:00;;;;;;;;;;;23.10;47.20;;;;;;1537407;76;731;-69
2021/09/24 00:09:02;;;;;;;;;;;23.10;47.20;;;;;;1541774;76;711;-69
2021/09/24 00:11:04;;;;;;;;;;;23.10;47.20;;;;;;1511113;77;734;-69
2021/09/24 00:13:06;;;;;;;;;;;23.10;47.30;;;;;;1580422;73;881;-69
2021/09/24 00:15:09;;;;;;;;;;;23.10;47.20;;;;;;1583314;73;1163;-72
2021/09/24 00:17:12;;;;;;;;;;;23.10;47.30;;;;;;1593949;73;753;-69
2021/09/24 00:19:14;;;;;;;;;;;23.10;47.30;;;;;;1586512;73;779;-69
2021/09/24 00:21:16;;;;;;;;;;;23.10;47.30;;;;;;1585100;73;1925;-67
2021/09/24 00:23:18;;;;;;;;;;;23.10;47.30;;;;;;1586321;74;771;-71
2021/09/24 00:25:20;;;;;;;;;;;23.10;47.30;;;;;;1578236;73;1144;-70
2021/09/24 00:27:21;;;;;;;;;;;23.10;47.30;;;;;;1591598;74;801;-71
2021/09/24 00:29:23;;;;;;;;;;;23.10;47.30;;;;;;1587416;74;912;-70
2021/09/24 00:31:25;;;;;;;;;;;23.10;47.30;;;;;;1580449;73;752;-70
2021/09/24 00:33:28;;;;;;;;;;;23.10;47.20;;;;;;1585501;73;754;-69
2021/09/24 00:35:29;;;;;;;;;;;23.10;47.10;;;;;;1586809;74;1140;-69
2021/09/24 00:37:31;;;;;;;;;;;23.10;47.10;;;;;;1590060;73;761;-71
2021/09/24 00:39:33;;;;;;;;;;;23.10;47.10;;;;;;1585916;73;790;-70
2021/09/24 00:41:35;;;;;;;;;;;23.10;47.10;;;;;;1590570;73;1910;-70
2021/09/24 00:43:37;;;;;;;;;;;23.10;47.10;;;;;;1586088;73;693;-71
2021/09/24 00:45:39;;;;;;;;;;;23.00;47.00;;;;;;1579534;71;229164;-65
2021/09/24 00:47:41;;;;;;;;;;;23.10;47.10;;;;;;1526111;77;700;-66
2021/09/24 00:49:43;;;;;;;;;;;23.10;47.10;;;;;;1521532;75;831;-64
2021/09/24 00:51:45;;;;;;;;;;;23.10;47.10;;;;;;1551909;76;677;-68
2021/09/24 00:53:46;;;;;;;;;;;23.10;47.10;;;;;;1545485;76;715;-65
2021/09/24 00:55:48;;;;;;;;;;;23.10;47.20;;;;;;1537277;76;1199;-65
2021/09/24 00:57:50;;;;;;;;;;;23.10;47.20;;;;;;1567782;76;767;-65
2021/09/24 00:59:52;;;;;;;;;;;23.10;47.30;;;;;;1555721;76;671;-65
2021/09/24 01:01:55;;;;;;;;;;;23.00;47.20;;;;;;1567247;74;1904;-64
2021/09/24 01:03:57;;;;;;;;;;;23.10;47.40;;;;;;1570353;76;622;-65
2021/09/24 01:05:58;;;;;;;;;;;23.10;47.40;;;;;;1560133;75;1184;-66
2021/09/24 01:08:01;;;;;;;;;;;23.00;47.30;;;;;;1555006;76;836;-65
2021/09/24 01:10:03;;;;;;;;;;;23.10;47.40;;;;;;1560610;75;699;-65
2021/09/24 01:12:05;;;;;;;;;;;23.00;47.30;;;;;;1567598;76;777;-65
2021/09/24 01:14:07;;;;;;;;;;;23.10;47.30;;;;;;1566189;74;762;-65
2021/09/24 01:16:09;;;;;;;;;;;23.10;47.40;;;;;;1561241;75;1135;-66
2021/09/24 01:18:11;;;;;;;;;;;23.00;47.30;;;;;;1566431;74;710;-66
2021/09/24 01:20:13;;;;;;;;;;;23.10;47.50;;;;;;1557726;74;779;-66
2021/09/24 01:22:15;;;;;;;;;;;23.10;47.50;;;;;;1566709;74;1928;-69
2021/09/24 01:24:17;;;;;;;;;;;23.00;47.40;;;;;;1567028;74;764;-67
2021/09/24 01:26:19;;;;;;;;;;;23.10;47.60;;;;;;1557978;76;1133;-67
2021/09/24 01:28:21;;;;;;;;;;;23.10;47.60;;;;;;1560197;76;750;-66
2021/09/24 01:30:23;;;;;;;;;;;23.10;47.60;;;;;;1561925;74;725;-67
2021/09/24 01:32:24;;;;;;;;;;;23.00;47.50;;;;;;1549439;76;792;-67
2021/09/24 01:34:26;;;;;;;;;;;23.10;47.70;;;;;;1570388;76;714;-65
2021/09/24 01:36:28;;;;;;;;;;;23.10;47.60;;;;;;1569380;74;1121;-65
2021/09/24 01:38:30;;;;;;;;;;;23.00;47.50;;;;;;1565823;74;806;-65
2021/09/24 01:40:32;;;;;;;;;;;23.00;47.50;;;;;;1546796;74;802;-65
2021/09/24 01:42:34;;;;;;;;;;;23.10;47.70;;;;;;1567447;74;1934;-65
2021/09/24 01:44:36;;;;;;;;;;;23.00;47.60;;;;;;1565124;76;779;-65
2021/09/24 01:46:39;;;;;;;;;;;23.10;47.60;;;;;;1560345;76;1172;-67
2021/09/24 01:48:43;;;;;;;;;;;23.10;47.70;;;;;;1563743;74;1608;-65
2021/09/24 01:50:45;;;;;;;;;;;23.00;47.60;;;;;;1562986;74;727;-65
2021/09/24 01:52:47;;;;;;;;;;;23.10;47.70;;;;;;1557281;74;711;-66
2021/09/24 01:54:49;;;;;;;;;;;23.00;47.60;;;;;;1569786;76;721;-66
2021/09/24 01:56:50;;;;;;;;;;;23.10;47.60;;;;;;1566481;74;1149;-67
2021/09/24 01:58:52;;;;;;;;;;;23.10;47.70;;;;;;1570644;74;746;-69
2021/09/24 02:00:54;;;;;;;;;;;23.00;47.70;;;;;;1554377;74;772;-66
2021/09/24 02:02:56;;;;;;;;;;;23.10;47.80;;;;;;1555815;76;1943;-67
2021/09/24 02:04:58;;;;;;;;;;;23.10;47.80;;;;;;1560244;76;786;-66
2021/09/24 02:07:00;;;;;;;;;;;23.00;47.80;;;;;;1563399;74;1118;-67
2021/09/24 02:09:02;;;;;;;;;;;23.10;47.90;;;;;;1559551;76;920;-67
2021/09/24 02:11:05;;;;;;;;;;;23.10;47.90;;;;;;1566026;74;716;-67
2021/09/24 02:13:07;;;;;;;;;;;23.10;47.90;;;;;;1569870;74;689;-67
2021/09/24 02:15:10;;;;;;;;;;;23.10;48.00;;;;;;1553639;74;788;-65
2021/09/24 02:17:11;;;;;;;;;;;23.00;47.80;;;;;;1568439;74;1141;-69
2021/09/24 02:19:13;;;;;;;;;;;23.00;47.80;;;;;;1566323;74;694;-68
2021/09/24 02:21:15;;;;;;;;;;;23.10;48.00;;;;;;1570590;74;706;-66
2021/09/24 02:23:17;;;;;;;;;;;23.10;48.00;;;;;;1570671;74;1941;-69
2021/09/24 02:25:19;;;;;;;;;;;23.10;47.90;;;;;;1568476;74;894;-70
2021/09/24 02:27:21;;;;;;;;;;;23.10;47.80;;;;;;1563641;74;713;-67
2021/09/24 02:29:23;;;;;;;;;;;23.00;47.80;;;;;;1567602;74;719;-66
2021/09/24 02:31:24;;;;;;;;;;;23.10;47.80;;;;;;1569698;74;749;-67
2021/09/24 02:33:26;;;;;;;;;;;23.10;47.80;;;;;;1569552;74;825;-69
2021/09/24 02:35:28;;;;;;;;;;;23.10;47.70;;;;;;1569346;74;1133;-66
2021/09/24 02:37:30;;;;;;;;;;;23.00;47.60;;;;;;1568403;74;817;-66
2021/09/24 02:39:32;;;;;;;;;;;23.10;47.70;;;;;;1567237;74;742;-66
2021/09/24 02:41:34;;;;;;;;;;;23.00;47.50;;;;;;1567975;74;779;-66
2021/09/24 02:43:36;;;;;;;;;;;23.00;47.50;;;;;;1570124;74;1935;-66
2021/09/24 02:45:38;;;;;;;;;;;23.00;47.40;;;;;;1568271;74;1145;-66
2021/09/24 02:47:39;;;;;;;;;;;23.00;47.50;;;;;;1564092;74;732;-67
2021/09/24 02:49:42;;;;;;;;;;;23.00;47.50;;;;;;1568852;74;784;-68
2021/09/24 02:51:44;;;;;;;;;;;23.10;47.60;;;;;;1569139;74;703;-71
2021/09/24 02:53:45;;;;;;;;;;;23.00;47.50;;;;;;1569405;74;787;-69
2021/09/24 02:55:47;;;;;;;;;;;23.00;47.40;;;;;;1567252;74;1142;-68
2021/09/24 02:57:49;;;;;;;;;;;23.10;47.60;;;;;;1570345;74;760;-68
2021/09/24 02:59:51;;;;;;;;;;;23.10;47.60;;;;;;1569743;74;769;-68
2021/09/24 03:01:55;;;;;;;;;;;23.00;47.40;;;;;;1568020;74;1938;-68
2021/09/24 03:03:57;;;;;;;;;;;23.00;47.40;;;;;;1570238;74;1644;-68
2021/09/24 03:05:59;;;;;;;;;;;23.00;47.40;;;;;;1568248;74;1161;-68
2021/09/24 03:08:00;;;;;;;;;;;23.00;47.40;;;;;;1569104;74;772;-68
2021/09/24 03:10:03;;;;;;;;;;;23.00;47.40;;;;;;1568603;74;780;-70
2021/09/24 03:12:05;;;;;;;;;;;23.00;47.40;;;;;;1567775;74;773;-68
2021/09/24 03:14:07;;;;;;;;;;;23.00;47.50;;;;;;1568103;74;681;-68
2021/09/24 03:16:09;;;;;;;;;;;23.00;47.50;;;;;;1566877;74;1115;-69
2021/09/24 03:18:11;;;;;;;;;;;23.00;47.50;;;;;;1567791;74;814;-68
2021/09/24 03:20:13;;;;;;;;;;;22.90;47.50;;;;;;1568935;74;749;-68
2021/09/24 03:22:15;;;;;;;;;;;22.90;47.50;;;;;;1573259;74;1909;-68
2021/09/24 03:24:17;;;;;;;;;;;23.00;47.50;;;;;;1569333;74;783;-67
2021/09/24 03:26:18;;;;;;;;;;;23.00;47.60;;;;;;1569645;74;1141;-67
2021/09/24 03:28:20;;;;;;;;;;;22.90;47.50;;;;;;1562647;74;779;-66
2021/09/24 03:30:24;;;;;;;;;;;22.90;47.60;;;;;;1568864;74;749;-68
2021/09/24 03:32:26;;;;;;;;;;;22.90;47.60;;;;;;1569490;74;800;-68
2021/09/24 03:34:27;;;;;;;;;;;22.90;47.60;;;;;;1565851;74;798;-67
2021/09/24 03:36:29;;;;;;;;;;;22.90;47.60;;;;;;1568298;74;1136;-67
2021/09/24 03:38:31;;;;;;;;;;;22.90;47.60;;;;;;1567950;74;760;-67
2021/09/24 03:40:33;;;;;;;;;;;22.90;47.60;;;;;;1568611;74;789;-68
2021/09/24 03:42:35;;;;;;;;;;;22.90;47.60;;;;;;1568683;74;1932;-68
2021/09/24 03:44:37;;;;;;;;;;;22.90;47.60;;;;;;1569141;74;840;-68
2021/09/24 03:46:39;;;;;;;;;;;22.90;47.60;;;;;;1568452;74;1121;-68
2021/09/24 03:48:41;;;;;;;;;;;22.90;47.60;;;;;;1565124;74;775;-68
2021/09/24 03:50:43;;;;;;;;;;;22.90;47.60;;;;;;1568463;74;780;-67
2021/09/24 03:52:44;;;;;;;;;;;22.90;47.70;;;;;;1570357;74;787;-67
2021/09/24 03:54:46;;;;;;;;;;;22.90;47.60;;;;;;1569536;74;727;-66
2021/09/24 03:56:48;;;;;;;;;;;22.90;47.70;;;;;;1567813;74;1153;-66
2021/09/24 03:58:50;;;;;;;;;;;22.90;47.70;;;;;;1567722;74;761;-62
2021/09/24 04:00:54;;;;;;;;;;;22.90;47.80;;;;;;1568390;74;733;-67
2021/09/24 04:02:56;;;;;;;;;;;22.90;47.80;;;;;;1566370;74;1914;-67
2021/09/24 04:04:58;;;;;;;;;;;22.90;47.80;;;;;;1567664;74;754;-66
2021/09/24 04:07:00;;;;;;;;;;;22.80;47.70;;;;;;1571028;74;1141;-66
2021/09/24 04:09:01;;;;;;;;;;;22.80;47.80;;;;;;1568652;74;730;-66
2021/09/24 04:11:03;;;;;;;;;;;22.80;47.80;;;;;;1569812;74;724;-66
2021/09/24 04:13:05;;;;;;;;;;;22.80;47.80;;;;;;1567794;74;706;-66
2021/09/24 04:15:08;;;;;;;;;;;22.80;47.90;;;;;;1567783;74;795;-66
2021/09/24 04:17:09;;;;;;;;;;;22.80;47.80;;;;;;1568702;74;1164;-67
2021/09/24 04:19:11;;;;;;;;;;;22.80;47.80;;;;;;1567640;74;668;-67
2021/09/24 04:21:13;;;;;;;;;;;22.80;47.80;;;;;;1568804;74;664;-68
2021/09/24 04:23:16;;;;;;;;;;;22.80;47.80;;;;;;1567476;74;1950;-65
2021/09/24 04:25:17;;;;;;;;;;;22.80;47.70;;;;;;1567030;74;714;-67
2021/09/24 04:27:19;;;;;;;;;;;22.80;47.80;;;;;;1570485;74;848;-68
2021/09/24 04:29:21;;;;;;;;;;;22.90;47.80;;;;;;1569210;74;745;-68
2021/09/24 04:31:23;;;;;;;;;;;22.90;47.90;;;;;;1567023;74;737;-67
2021/09/24 04:33:25;;;;;;;;;;;22.90;47.80;;;;;;1567821;74;811;-65
2021/09/24 04:35:27;;;;;;;;;;;22.90;48.00;;;;;;1566979;74;1123;-66
2021/09/24 04:37:29;;;;;;;;;;;22.80;47.70;;;;;;1568126;74;754;-66
2021/09/24 04:39:31;;;;;;;;;;;22.80;47.70;;;;;;1567865;74;694;-66
2021/09/24 04:41:33;;;;;;;;;;;22.80;47.60;;;;;;1566226;74;713;-67
2021/09/24 04:43:35;;;;;;;;;;;22.90;47.80;;;;;;1566195;74;1946;-68
2021/09/24 04:45:37;;;;;;;;;;;22.80;47.60;;;;;;1566898;74;1171;-68
2021/09/24 04:47:39;;;;;;;;;;;22.80;47.70;;;;;;1569257;74;719;-68
2021/09/24 04:49:40;;;;;;;;;;;22.90;47.80;;;;;;1568494;74;775;-68
2021/09/24 04:51:44;;;;;;;;;;;22.80;47.80;;;;;;1567891;74;741;-66
2021/09/24 04:53:46;;;;;;;;;;;22.80;47.80;;;;;;1568538;74;791;-67
2021/09/24 04:55:47;;;;;;;;;;;22.90;47.60;;;;;;1571031;74;1190;-67
2021/09/24 04:57:49;;;;;;;;;;;22.90;47.00;;;;;;1570872;74;681;-64
2021/09/24 04:59:51;;;;;;;;;;;22.90;46.80;;;;;;1569654;74;701;-66
2021/09/24 05:01:53;;;;;;;;;;;22.80;46.70;;;;;;1570016;74;732;-67
2021/09/24 05:03:55;;;;;;;;;;;22.90;46.80;;;;;;1571519;74;1946;-66
2021/09/24 05:05:57;;;;;;;;;;;22.80;46.60;;;;;;1570589;74;1159;-66
2021/09/24 05:07:59;;;;;;;;;;;22.80;46.70;;;;;;1555424;76;761;-68
2021/09/24 05:10:01;;;;;;;;;;;22.80;46.70;;;;;;1560168;76;679;-66
2021/09/24 05:12:03;;;;;;;;;;;22.80;46.70;;;;;;1557013;76;711;-66
2021/09/24 05:14:05;;;;;;;;;;;22.80;46.70;;;;;;1564542;74;708;-67
2021/09/24 05:16:06;;;;;;;;;;;22.80;46.60;;;;;;1561127;74;1134;-67
2021/09/24 05:18:08;;;;;;;;;;;22.80;46.60;;;;;;1555151;75;677;-66
2021/09/24 05:20:11;;;;;;;;;;;22.80;46.50;;;;;;1558120;76;789;-67
2021/09/24 05:22:13;;;;;;;;;;;22.80;46.50;;;;;;1564926;75;821;-67
2021/09/24 05:24:14;;;;;;;;;;;22.80;46.50;;;;;;1570287;74;1924;-68
2021/09/24 05:26:16;;;;;;;;;;;22.70;46.50;;;;;;1548835;76;1122;-67
2021/09/24 05:28:18;;;;;;;;;;;22.80;46.50;;;;;;1558684;76;769;-67
2021/09/24 05:30:20;;;;;;;;;;;22.70;46.50;;;;;;1569360;74;766;-65
2021/09/24 05:32:22;;;;;;;;;;;22.80;46.50;;;;;;1569538;74;742;-67
2021/09/24 05:34:24;;;;;;;;;;;22.80;46.50;;;;;;1570897;74;721;-67
2021/09/24 05:36:26;;;;;;;;;;;22.80;46.50;;;;;;1567975;74;1192;-66
2021/09/24 05:38:28;;;;;;;;;;;22.80;46.70;;;;;;1568270;74;709;-68
2021/09/24 05:40:29;;;;;;;;;;;22.70;46.70;;;;;;1566885;74;731;-67
2021/09/24 05:42:31;;;;;;;;;;;22.80;46.70;;;;;;1554725;74;665;-64
2021/09/24 05:44:33;;;;;;;;;;;22.80;46.60;;;;;;1565391;74;1934;-65
2021/09/24 05:46:35;;;;;;;;;;;22.80;46.50;;;;;;1558287;74;1126;-66
2021/09/24 05:48:37;;;;;;;;;;;22.80;46.50;;;;;;1569653;74;764;-64
2021/09/24 05:50:39;;;;;;;;;;;22.80;46.30;;;;;;1569531;74;754;-64
2021/09/24 05:52:41;;;;;;;;;;;22.90;46.40;;;;;;1569549;74;784;-64
2021/09/24 05:54:43;;;;;;;;;;;22.80;46.30;;;;;;1569071;74;800;-66
2021/09/24 05:56:45;;;;;;;;;;;22.80;46.10;;;;;;1567215;74;1171;-65
2021/09/24 05:58:47;;;;;;;;;;;22.70;46.00;;;;;;1567511;74;787;-65
2021/09/24 06:00:49;;;;;;;;;;;22.80;46.00;;;;;;1569674;74;761;-67
2021/09/24 06:02:51;;;;;;;;;;;22.70;46.00;;;;;;1568487;74;682;-63
2021/09/24 06:04:52;;;;;;;;;;;22.80;45.80;;;;;;1567687;74;1942;-65
2021/09/24 06:06:54;;;;;;;;;;;22.70;45.80;;;;;;1569325;74;1185;-64
2021/09/24 06:08:58;;;;;;;;;;;22.70;45.70;;;;;;1568830;74;779;-64
2021/09/24 06:11:00;;;;;;;;;;;22.70;45.70;;;;;;1568074;74;791;-65
2021/09/24 06:13:02;;;;;;;;;;;22.70;45.70;;;;;;1569550;74;755;-65
2021/09/24 06:15:04;;;;;;;;;;;22.70;45.60;;;;;;1559135;74;665;-66
2021/09/24 06:17:09;;;;;;;;;;;22.70;45.50;;;;;;1563539;76;1122;-65
2021/09/24 06:19:10;;;;;;;;;;;22.60;45.30;;;;;;1560763;74;1760;-64
2021/09/24 06:21:12;;;;;;;;;;;22.60;45.10;;;;;;1571039;74;686;-65
2021/09/24 06:23:13;;;;;;;;;;;22.70;45.10;;;;;;1573645;74;1942;-64
2021/09/24 06:25:15;;;;;;;;;;;22.60;45.00;;;;;;1568232;76;885;-63
2021/09/24 06:27:17;;;;;;;;;;;22.70;45.10;;;;;;1564831;76;1103;-64
2021/09/24 06:29:19;;;;;;;;;;;22.60;45.00;;;;;;1568096;76;784;-64
2021/09/24 06:31:21;;;;;;;;;;;22.60;44.90;;;;;;1568866;74;700;-64
2021/09/24 06:33:23;;;;;;;;;;;22.50;44.80;;;;;;1568360;76;805;-65
2021/09/24 06:35:25;;;;;;;;;;;22.60;44.70;;;;;;1568620;74;1101;-65
2021/09/24 06:37:27;;;;;;;;;;;22.50;44.70;;;;;;1567960;76;749;-64
2021/09/24 06:39:28;;;;;;;;;;;22.50;44.90;;;;;;1567210;75;753;-65
2021/09/24 06:41:31;;;;;;;;;;;22.60;45.00;;;;;;1569613;74;675;-66
2021/09/24 06:43:33;;;;;;;;;;;22.50;45.20;;;;;;1569426;76;1928;-64
2021/09/24 06:45:54;;;;;;;;;;;22.50;45.30;;;;;;1567470;74;1251;-62
2021/09/24 06:47:56;;;;;;;;;;;22.50;45.40;;;;;;1546785;75;699;-58
2021/09/24 06:49:58;;;;;;;;;;;22.50;45.40;;;;;;1550064;75;778;-57
2021/09/24 06:51:59;;;;;;;;;;;22.50;45.40;;;;;;1553970;75;789;-58
2021/09/24 06:54:01;;;;;;;;;;;22.50;45.40;;;;;;1551561;75;1157;-59
2021/09/24 06:56:03;;;;;;;;;;;22.50;45.30;;;;;;1575018;74;783;-59
2021/09/24 06:58:06;;;;;;;;;;;22.50;45.30;;;;;;1529057;76;816;-58
2021/09/24 07:00:08;;;;;;;;;;;22.50;45.30;;;;;;1556686;74;610;-59
2021/09/24 07:02:11;;;;;;;;;;;22.50;45.30;;;;;;1564841;74;746;-59
2021/09/24 07:04:12;;;;;;;;;;;22.50;45.30;;;;;;1562729;74;1909;-59
2021/09/24 07:06:14;;;;;;;;;;;22.50;45.30;;;;;;1535152;76;847;-59
2021/09/24 07:08:16;;;;;;;;;;;22.40;45.20;;;;;;1560050;74;742;-58
2021/09/24 07:10:18;;;;;;;;;;;22.40;45.10;;;;;;1563913;74;829;-57
2021/09/24 07:12:20;;;;;;;;;;;22.40;45.10;;;;;;1579217;74;825;-59
2021/09/24 07:14:22;;;;;;;;;;;22.40;45.20;;;;;;1560112;74;1127;-59
2021/09/24 07:16:24;;;;;;;;;;;22.50;45.30;;;;;;1553801;75;785;-58
2021/09/24 07:18:26;;;;;;;;;;;22.40;45.20;;;;;;1552654;76;786;-59
2021/09/24 07:20:28;;;;;;;;;;;22.40;45.40;;;;;;1534102;74;782;-59
2021/09/24 07:22:30;;;;;;;;;;;22.50;45.40;;;;;;1539917;74;782;-59
2021/09/24 07:24:32;;;;;;;;;;;22.50;45.50;;;;;;1536288;74;1924;-60
2021/09/24 07:26:34;;;;;;;;;;;22.50;45.50;;;;;;1537535;74;812;-59
2021/09/24 07:28:36;;;;;;;;;;;22.60;45.40;;;;;;1541290;74;729;-59
2021/09/24 07:30:38;;;;;;;;;;;22.60;45.50;;;;;;1554844;74;748;-58
2021/09/24 07:32:41;;;;;;;;;;;22.60;45.50;;;;;;1541248;74;739;-60
2021/09/24 07:34:43;;;;;;;;;;;22.60;45.40;;;;;;1533163;74;1103;-59
2021/09/24 07:36:45;;;;;;;;;;;22.60;45.50;;;;;;1533591;74;785;-60
2021/09/24 07:38:48;;;;;;;;;;;22.70;45.40;;;;;;1533070;74;794;-59
2021/09/24 07:40:50;;;;;;;;;;;22.70;45.30;;;;;;1574602;74;686;-58
2021/09/24 07:42:52;;;;;;;;;;;22.70;45.30;;;;;;1563930;74;780;-59
2021/09/24 07:44:54;;;;;;;;;;;22.70;45.30;;;;;;1552845;75;1955;-60
2021/09/24 07:46:56;;;;;;;;;;;22.90;45.40;;;;;;1550592;75;751;-59
2021/09/24 07:48:59;;;;;;;;;;;22.90;45.30;;;;;;1547287;75;748;-59
2021/09/24 07:51:03;;;;;;;;;;;22.90;45.30;;;;;;1557128;74;717;-58
2021/09/24 07:53:05;;;;;;;;;;;23.00;45.10;;;;;;1554274;74;688;-60
2021/09/24 07:55:07;;;;;;;;;;;22.90;45.10;;;;;;1543864;74;1140;-58
2021/09/24 07:57:09;;;;;;;;;;;23.00;44.80;;;;;;1548658;74;793;-60
2021/09/24 07:59:11;;;;;;;;;;;23.00;44.80;;;;;;1536929;74;764;-58
2021/09/24 08:01:13;;;;;;;;;;;23.10;44.90;;;;;;1545361;74;675;-60
2021/09/24 08:03:15;;;;;;;;;;;23.00;44.60;;;;;;1543846;74;796;-58
2021/09/24 08:05:17;;;;;;;;;;;23.00;44.50;;;;;;1515516;76;1928;-58
2021/09/24 08:07:19;;;;;;;;;;;23.00;44.50;;;;;;1551304;75;719;-60
2021/09/24 08:09:21;;;;;;;;;;;23.00;44.50;;;;;;1540198;74;718;-58
2021/09/24 08:11:23;;;;;;;;;;;23.00;44.40;;;;;;1543791;74;676;-56
2021/09/24 08:13:25;;;;;;;;;;;22.90;44.50;;;;;;1536347;74;1143;-56
2021/09/24 08:15:27;;;;;;;;;;;23.00;44.60;;;;;;1537219;74;811;-58
2021/09/24 08:17:28;;;;;;;;;;;23.00;44.60;;;;;;1537906;74;725;-58
2021/09/24 08:19:30;;;;;;;;;;;22.90;44.50;;;;;;1538540;74;726;-59
2021/09/24 08:21:32;;;;;;;;;;;22.90;44.60;;;;;;1540903;74;776;-59
2021/09/24 08:23:34;;;;;;;;;;;22.90;44.60;;;;;;1542611;74;1158;-59
2021/09/24 08:25:36;;;;;;;;;;;23.00;44.60;;;;;;1542538;74;1918;-57
2021/09/24 08:27:38;;;;;;;;;;;22.90;44.60;;;;;;1550043;74;650;-56
2021/09/24 08:29:40;;;;;;;;;;;22.90;44.70;;;;;;1555689;75;765;-58
2021/09/24 08:31:42;;;;;;;;;;;22.90;44.70;;;;;;1548398;75;715;-58
2021/09/24 08:33:46;;;;;;;;;;;23.00;44.70;;;;;;1546612;74;1064;-56
2021/09/24 08:35:47;;;;;;;;;;;22.90;44.60;;;;;;1545457;74;1494;-60
2021/09/24 08:37:49;;;;;;;;;;;23.00;44.50;;;;;;1538080;74;732;-60
2021/09/24 08:39:51;;;;;;;;;;;23.00;44.50;;;;;;1546541;74;730;-60
2021/09/24 08:41:53;;;;;;;;;;;23.00;44.40;;;;;;1539218;74;775;-60
2021/09/24 08:43:56;;;;;;;;;;;23.00;44.40;;;;;;1545243;74;1955;-58
2021/09/24 08:45:58;;;;;;;;;;;23.00;44.40;;;;;;1543711;74;907;-60
2021/09/24 08:48:01;;;;;;;;;;;23.10;44.50;;;;;;1537617;74;811;-59
2021/09/24 08:50:05;;;;;;;;;;;23.10;44.60;;;;;;1541165;74;777;-59
2021/09/24 08:52:07;;;;;;;;;;;23.10;44.60;;;;;;1533760;74;1115;-59
2021/09/24 08:54:09;;;;;;;;;;;23.10;44.50;;;;;;1536221;74;1158;-57
2021/09/24 08:56:12;;;;;;;;;;;23.10;44.60;;;;;;1544504;74;697;-55
2021/09/24 08:58:15;;;;;;;;;;;23.10;44.50;;;;;;1537612;74;685;-57
2021/09/24 09:00:17;;;;;;;;;;;23.20;44.50;;;;;;1535121;74;804;-60
2021/09/24 09:02:19;;;;;;;;;;;23.20;44.50;;;;;;1518829;76;716;-59
2021/09/24 09:04:22;;;;;;;;;;;23.20;44.50;;;;;;1530744;75;1946;-60
2021/09/24 09:06:24;;;;;;;;;;;23.20;44.50;;;;;;1550659;74;1694;-59
2021/09/24 09:08:34;;;;;;;;;;;23.20;44.50;;;;;;1534943;75;948;-55
2021/09/24 09:10:43;;;;;;;;;;;23.20;44.50;;;;;;1536065;74;1520;-56
2021/09/24 09:12:45;;;;;;;;;;;23.30;44.60;;;;;;1542302;74;896;-59
2021/09/24 09:14:57;;;;;;;;;;;23.20;44.50;;;;;;1542526;74;1182;-60
2021/09/24 09:16:59;;;;;;;;;;;23.20;44.50;;;;;;1544611;74;750;-60
2021/09/24 09:19:11;;;;;;;;;;;23.30;44.60;;;;;;1545919;74;763;-60
2021/09/24 09:21:14;;;;;;;;;;;23.30;44.50;;;;;;1558531;74;829;-55
2021/09/24 09:23:16;;;;;;;;;;;23.30;44.70;;;;;;1555276;74;704;-58
2021/09/24 09:25:22;;;;;;;;;;;23.30;44.60;;;;;;1569036;74;1951;-60
2021/09/24 09:27:26;;;;;;;;;;;23.40;44.70;;;;;;1528231;76;1005;-57
2021/09/24 09:29:28;;;;;;;;;;;23.30;44.50;;;;;;1548014;74;1428;-60
2021/09/24 09:31:31;;;;;;;;;;;23.40;44.40;;;;;;1546452;76;747;-57
2021/09/24 09:33:34;;;;;;;;;;;23.40;44.40;;;;;;1555973;76;1103;-60
2021/09/24 09:35:37;;;;;;;;;;;23.40;44.40;;;;;;1535337;76;720;-58
2021/09/24 09:37:39;;;;;;;;;;;23.40;44.20;;;;;;1565365;74;731;-59
2021/09/24 09:39:41;;;;;;;;;;;23.40;44.20;;;;;;1550148;74;776;-60
2021/09/24 09:41:50;;;;;;;;;;;23.30;44.30;;;;;;1541693;74;783;-59
2021/09/24 09:43:52;;;;;;;;;;;23.30;44.40;;;;;;1547503;74;1131;-59
2021/09/24 09:45:54;;;;;;;;;;;23.30;44.40;;;;;;1557198;74;1924;-57
2021/09/24 09:47:56;;;;;;;;;;;23.30;44.40;;;;;;1558948;74;814;-56
2021/09/24 09:50:11;;;;;;;;;;;23.30;44.20;;;;;;1555791;74;755;-59
2021/09/24 09:52:13;;;;;;;;;;;23.30;44.30;;;;;;1557294;74;742;-58
2021/09/24 09:54:28;;;;;;;;;;;23.30;44.40;;;;;;1563416;74;1156;-57
2021/09/24 09:56:35;;;;;;;;;;;23.30;44.60;;;;;;1559930;75;736;-58
2021/09/24 09:58:40;;;;;;;;;;;23.30;44.70;;;;;;1556084;75;1269;-56
2021/09/24 10:01:00;;;;;;;;;;;23.30;44.50;;;;;;1553141;74;951;-57
2021/09/24 10:03:03;;;;;;;;;;;23.30;44.50;;;;;;1543915;74;793;-59
2021/09/24 10:05:05;;;;;;;;;;;23.30;44.70;;;;;;1545213;74;1935;-59
2021/09/24 10:07:13;;;;;;;;;;;23.20;44.40;;;;;;1550084;74;802;-58
2021/09/24 10:09:15;;;;;;;;;;;23.30;44.50;;;;;;1558541;74;780;-59
2021/09/24 10:11:19;;;;;;;;;;;23.30;44.50;;;;;;1564488;74;1230;-57
2021/09/24 10:13:21;;;;;;;;;;;23.30;44.50;;;;;;1552348;74;770;-59
2021/09/24 10:15:23;;;;;;;;;;;23.30;44.60;;;;;;1569703;74;1196;-58
2021/09/24 10:17:24;;;;;;;;;;;23.30;44.70;;;;;;1567879;74;705;-58
2021/09/24 10:19:29;;;;;;;;;;;23.30;44.50;;;;;;1567246;74;765;-57
2021/09/24 10:21:30;;;;;;;;;;;23.30;44.30;;;;;;1562069;74;1653;-56
2021/09/24 10:23:32;;;;;;;;;;;23.30;44.30;;;;;;1526880;76;1136;-55
2021/09/24 10:25:35;;;;;;;;;;;23.30;44.40;;;;;;1575469;74;1958;-59
2021/09/24 10:27:38;;;;;;;;;;;23.40;44.40;;;;;;1541904;76;717;-57
2021/09/24 10:29:42;;;;;;;;;;;23.30;44.40;;;;;;1531158;76;777;-56
2021/09/24 10:31:48;;;;;;;;;;;23.30;44.90;;;;;;1546010;76;785;-59
2021/09/24 10:33:50;;;;;;;;;;;23.30;44.70;;;;;;1558032;75;1610;-59
2021/09/24 10:35:52;;;;;;;;;;;23.30;44.70;;;;;;1556836;75;756;-58
2021/09/24 10:37:56;;;;;;;;;;;23.30;44.40;;;;;;1549457;76;585;-58
2021/09/24 10:39:59;;;;;;;;;;;23.30;44.40;;;;;;1552795;76;2024;-59
2021/09/24 10:42:19;;;;;;;;;;;23.40;44.40;;;;;;1540083;75;806;-55
2021/09/24 10:44:22;;;;;;;;;;;23.30;44.70;;;;;;1548632;74;1071;-58
2021/09/24 10:46:26;;;;;;;;;;;23.30;44.60;;;;;;1564370;75;1933;-58
2021/09/24 10:48:28;;;;;;;;;;;23.30;44.40;;;;;;1578053;74;807;-55
2021/09/24 10:50:32;;;;;;;;;;;23.30;44.60;;;;;;1544706;75;666;-59
2021/09/24 10:52:36;;;;;;;;;;;23.20;44.70;;;;;;1548679;76;696;-56
2021/09/24 10:54:57;;;;;;;;;;;23.20;44.40;;;;;;1553096;75;1123;-57
2021/09/24 10:57:01;;;;;;;;;;;23.20;44.40;;;;;;1554839;76;793;-58
2021/09/24 10:59:04;;;;;;;;;;;23.20;44.20;;;;;;1544637;76;1815;-58
2021/09/24 11:01:11;;;;;;;;;;;23.30;44.40;;;;;;1542520;75;2003;-59
2021/09/24 11:03:11;;;;;;;;;;;23.20;44.70;;;;;;1579121;74;1488;-56
2021/09/24 11:05:13;;;;;;;;;;;23.10;44.90;;;;;;1561770;74;2111;-55
2021/09/24 11:07:19;;;;;;;;;;;23.20;45.00;;;;;;1570920;74;743;-55
2021/09/24 11:09:26;;;;;;;;;;;23.20;45.10;;;;;;1557025;74;1044;-58
2021/09/24 11:11:26;;;;;;;;;;;23.10;45.40;;;;;;1562991;74;1132;-56
2021/09/24 11:13:28;;;;;;;;;;;23.10;45.50;;;;;;1561948;74;1989;-58
2021/09/24 11:15:30;;;;;;;;;;;23.10;45.30;;;;;;1560831;75;722;-58
2021/09/24 11:17:39;;;;;;;;;;;23.10;45.20;;;;;;1561063;75;725;-57
2021/09/24 11:19:45;;;;;;;;;;;23.20;45.10;;;;;;1560167;74;710;-54
2021/09/24 11:22:01;;;;;;;;;;;23.20;45.10;;;;;;1563168;74;748;-55
2021/09/24 11:24:03;;;;;;;;;;;23.10;45.20;;;;;;1558490;75;1109;-58
2021/09/24 11:26:12;;;;;;;;;;;23.00;45.00;;;;;;1545410;74;1944;-58
2021/09/24 11:28:22;;;;;;;;;;;23.10;45.30;;;;;;1556700;75;762;-58
2021/09/24 11:30:25;;;;;;;;;;;23.20;45.10;;;;;;1549856;75;1390;-58
2021/09/24 11:32:35;;;;;;;;;;;23.20;45.10;;;;;;1538003;75;777;-57
2021/09/24 11:34:43;;;;;;;;;;;23.10;45.20;;;;;;1551399;75;1895;-55
2021/09/24 11:36:57;;;;;;;;;;;23.10;45.80;;;;;;1555658;75;2004;-53
2021/09/24 11:39:04;;;;;;;;;;;23.10;45.60;;;;;;1541503;75;799;-55
2021/09/24 11:41:05;;;;;;;;;;;23.10;45.50;;;;;;1555790;76;1733;-57
2021/09/24 11:43:07;;;;;;;;;;;23.20;45.50;;;;;;1556332;76;866;-55
2021/09/24 11:45:10;;;;;;;;;;;23.20;45.20;;;;;;1550422;76;1935;-55
2021/09/24 11:47:20;;;;;;;;;;;23.20;45.20;;;;;;1552661;75;740;-58
2021/09/24 11:49:22;;;;;;;;;;;23.20;45.50;;;;;;1551429;76;824;-54
2021/09/24 11:51:24;;;;;;;;;;;23.20;45.30;;;;;;1548222;75;730;-58
2021/09/24 11:53:26;;;;;;;;;;;23.20;45.20;;;;;;1543097;74;1184;-55
2021/09/24 11:55:32;;;;;;;;;;;23.20;45.00;;;;;;1549070;74;852;-56
2021/09/24 11:57:34;;;;;;;;;;;23.20;45.00;;;;;;1554330;74;736;-58
2021/09/24 11:59:35;;;;;;;;;;;23.20;45.00;;;;;;1551150;74;737;-58
2021/09/24 12:01:37;;;;;;;;;;;23.20;45.00;;;;;;1547321;75;851;-58
2021/09/24 12:03:39;;;;;;;;;;;23.20;45.00;;;;;;1544374;75;1173;-58
2021/09/24 12:05:43;;;;;;;;;;;23.30;45.00;;;;;;1553585;74;1955;-58
2021/09/24 12:07:51;;;;;;;;;;;23.30;44.90;;;;;;1549408;74;1166;-56
2021/09/24 12:09:57;;;;;;;;;;;23.20;44.90;;;;;;1548469;74;719;-56
2021/09/24 12:11:58;;;;;;;;;;;23.20;44.90;;;;;;1544871;74;787;-55